Lewisville, TX

5:44 PM CDT on August 01, 2015 (GMT -0500)
Westchester | | Change Station
CLOSE
Current Station
Personal Weather Station
Location: Flower Mound, TX
Elevation: 646 ft
Nearby Weather Stations

Elev 646 ft 33.04 °N, 97.07 °W | Updated 11 seconds ago

Mostly Cloudy
Mostly Cloudy
103.3 °F
Feels Like 108 °F
N
3.1
Wind Variable Wind from West
Gusts 8.3 mph

Today
High -- | Low -- °F
--% Chance of Precip.
Yesterday
High -- | Low -- °F
Precip. -- in
6:41 AM 8:27 PM
Full, 97% visible
Pressure 29.93 in
Visibility 10.0 miles
Clouds Scattered Clouds 13000 ft
Mostly Cloudy 30000 ft
Heat Index 108 °F
Dew Point 65 °F
Humidity 29%
Rainfall 0.00 in
Snow Depth Not available.
UV 0.0 out of 12
Pollen 4.50 out of 12
Air Quality Not available.
Flu Activity Not available.
METAR KDFW 012153Z VRB05KT 10SM SCT130 BKN300 36/12 A2996 RMK AO2 SLP134 T03560122

More Conditions Fewer Conditions

Pressure 29.93 in
Visibility 10.0 miles
Clouds Scattered Clouds 13000 ft
Mostly Cloudy 30000 ft
Heat Index 108 °F
Dew Point 65 °F
Humidity 29%
Rainfall 0.00 in
Snow Depth Not available.
UV 0.0 out of 12
Pollen 4.50 out of 12
Air Quality Not available.
Flu Activity Not available.
METAR KDFW 012153Z VRB05KT 10SM SCT130 BKN300 36/12 A2996 RMK AO2 SLP134 T03560122

More Conditions Fewer Conditions

Nowcast | as of 3:10 PM CDT on August 1, 2015

Isolated showers continue this afternoon west of a Bowie to Comanche line. Locations that do see rain could receive up to 1/10 of an inch. An isolated lightning strike is possible. Otherwise...partly to mostly cloudy and warm conditions will persist with temperatures ranging from the 80s in areas where it rained today...to the 90s elsewhere.

×

10-Day Weather Forecast

×

Almanac

Astronomy

Aug. 01, 2015 Rise Set
Actual Time
Civil Twilight
Nautical Twilight
Astronomical Twilight
Moon
Length of Visible Light
Length of Day
Tomorrow will be .
, % of the Moon is Illuminated

Today's Extremes

State Highs State Lows

Community

WunderPhotos

Upload Photos

1,843,087 photos uploaded!

WunderBlogs® & News

Nearby

Air Quality

  Air Quality AQ Index Pollutant
Not available.

Snow Depth

Station Depth Elevation

Earthquake Activity

City Distance Mag. Time & Date
Minimum magnitude displayed is 2.5.

Coastal Water Temperatures

Place Temperature

Stations

Nearby Weather Stations

Station Location Temp. Windchill Dew Point Humidity Wind Precip. Elev Updated Type